sensor_id;sensor_type;location;lat;lon;timestamp;P1;durP1;ratioP1;P2;durP2;ratioP2
6852;SDS011;3465;42.144;24.722;2023-02-28T00:00:08;19.00;;;6.97;;
6852;SDS011;3465;42.144;24.722;2023-02-28T00:02:38;20.27;;;7.47;;
6852;SDS011;3465;42.144;24.722;2023-02-28T00:05:05;18.23;;;7.00;;
6852;SDS011;3465;42.144;24.722;2023-02-28T00:07:32;17.27;;;6.37;;
6852;SDS011;3465;42.144;24.722;2023-02-28T00:09:57;18.63;;;6.83;;
6852;SDS011;3465;42.144;24.722;2023-02-28T00:12:23;18.90;;;7.17;;
6852;SDS011;3465;42.144;24.722;2023-02-28T00:14:49;14.97;;;6.93;;
6852;SDS011;3465;42.144;24.722;2023-02-28T00:17:15;21.10;;;7.40;;
6852;SDS011;3465;42.144;24.722;2023-02-28T00:19:42;16.87;;;7.37;;
6852;SDS011;3465;42.144;24.722;2023-02-28T00:22:08;18.53;;;7.40;;
6852;SDS011;3465;42.144;24.722;2023-02-28T00:24:34;17.93;;;7.27;;
6852;SDS011;3465;42.144;24.722;2023-02-28T00:26:59;13.37;;;6.87;;
6852;SDS011;3465;42.144;24.722;2023-02-28T00:29:24;14.30;;;7.00;;
6852;SDS011;3465;42.144;24.722;2023-02-28T00:31:50;16.23;;;7.20;;
6852;SDS011;3465;42.144;24.722;2023-02-28T00:34:15;18.33;;;6.93;;
6852;SDS011;3465;42.144;24.722;2023-02-28T00:36:40;16.67;;;6.97;;
6852;SDS011;3465;42.144;24.722;2023-02-28T00:39:10;17.13;;;6.93;;
6852;SDS011;3465;42.144;24.722;2023-02-28T00:41:36;48.80;;;9.20;;
6852;SDS011;3465;42.144;24.722;2023-02-28T00:44:01;68.23;;;11.27;;
6852;SDS011;3465;42.144;24.722;2023-02-28T00:46:26;46.10;;;9.40;;
6852;SDS011;3465;42.144;24.722;2023-02-28T00:48:52;56.43;;;10.33;;
6852;SDS011;3465;42.144;24.722;2023-02-28T00:51:17;64.50;;;11.53;;
6852;SDS011;3465;42.144;24.722;2023-02-28T00:53:42;116.00;;;15.50;;
6852;SDS011;3465;42.144;24.722;2023-02-28T00:56:08;106.53;;;14.03;;
6852;SDS011;3465;42.144;24.722;2023-02-28T00:58:33;39.93;;;9.60;;
6852;SDS011;3465;42.144;24.722;2023-02-28T01:00:59;56.57;;;10.67;;
6852;SDS011;3465;42.144;24.722;2023-02-28T01:03:24;55.83;;;10.03;;
6852;SDS011;3465;42.144;24.722;2023-02-28T01:05:50;54.60;;;10.60;;
6852;SDS011;3465;42.144;24.722;2023-02-28T01:08:15;40.50;;;9.27;;
6852;SDS011;3465;42.144;24.722;2023-02-28T01:10:41;34.03;;;9.50;;
6852;SDS011;3465;42.144;24.722;2023-02-28T01:13:07;37.67;;;8.73;;
6852;SDS011;3465;42.144;24.722;2023-02-28T01:15:33;36.03;;;8.90;;
6852;SDS011;3465;42.144;24.722;2023-02-28T01:17:58;28.03;;;7.93;;
6852;SDS011;3465;42.144;24.722;2023-02-28T01:20:23;33.33;;;8.87;;
6852;SDS011;3465;42.144;24.722;2023-02-28T01:22:49;20.37;;;6.60;;
6852;SDS011;3465;42.144;24.722;2023-02-28T01:25:14;18.67;;;7.27;;
6852;SDS011;3465;42.144;24.722;2023-02-28T01:27:40;19.20;;;7.17;;
6852;SDS011;3465;42.144;24.722;2023-02-28T01:30:08;20.00;;;6.93;;
6852;SDS011;3465;42.144;24.722;2023-02-28T01:32:35;20.47;;;7.00;;
6852;SDS011;3465;42.144;24.722;2023-02-28T01:35:01;16.67;;;7.00;;
6852;SDS011;3465;42.144;24.722;2023-02-28T01:37:26;21.17;;;7.70;;
6852;SDS011;3465;42.144;24.722;2023-02-28T01:39:52;20.27;;;7.30;;
6852;SDS011;3465;42.144;24.722;2023-02-28T01:42:17;20.47;;;7.20;;
6852;SDS011;3465;42.144;24.722;2023-02-28T01:45:03;17.23;;;7.20;;
6852;SDS011;3465;42.144;24.722;2023-02-28T01:47:47;14.40;;;7.40;;
6852;SDS011;3465;42.144;24.722;2023-02-28T01:50:19;18.00;;;7.10;;
6852;SDS011;3465;42.144;24.722;2023-02-28T01:52:47;17.20;;;6.80;;
6852;SDS011;3465;42.144;24.722;2023-02-28T01:55:15;17.93;;;6.80;;
6852;SDS011;3465;42.144;24.722;2023-02-28T01:57:46;18.30;;;7.03;;
6852;SDS011;3465;42.144;24.722;2023-02-28T02:00:16;20.27;;;7.13;;
6852;SDS011;3465;42.144;24.722;2023-02-28T02:02:46;14.93;;;6.40;;
6852;SDS011;3465;42.144;24.722;2023-02-28T02:05:15;21.33;;;7.03;;
6852;SDS011;3465;42.144;24.722;2023-02-28T02:07:45;18.27;;;6.57;;
6852;SDS011;3465;42.144;24.722;2023-02-28T02:15:25;19.97;;;6.53;;
6852;SDS011;3465;42.144;24.722;2023-02-28T02:17:57;21.03;;;6.87;;
6852;SDS011;3465;42.144;24.722;2023-02-28T02:40:11;25.00;;;7.50;;
6852;SDS011;3465;42.144;24.722;2023-02-28T02:45:23;14.77;;;7.33;;
6852;SDS011;3465;42.144;24.722;2023-02-28T02:47:53;21.50;;;7.17;;
6852;SDS011;3465;42.144;24.722;2023-02-28T02:50:27;15.27;;;8.07;;
6852;SDS011;3465;42.144;24.722;2023-02-28T02:52:58;23.17;;;8.23;;
6852;SDS011;3465;42.144;24.722;2023-02-28T02:55:26;21.30;;;8.63;;
6852;SDS011;3465;42.144;24.722;2023-02-28T02:57:57;20.33;;;7.80;;
6852;SDS011;3465;42.144;24.722;2023-02-28T03:00:27;18.40;;;7.80;;
6852;SDS011;3465;42.144;24.722;2023-02-28T03:02:57;19.17;;;8.23;;
6852;SDS011;3465;42.144;24.722;2023-02-28T03:05:28;23.33;;;8.90;;
6852;SDS011;3465;42.144;24.722;2023-02-28T03:07:59;21.23;;;8.63;;
6852;SDS011;3465;42.144;24.722;2023-02-28T03:13:08;19.60;;;9.13;;
6852;SDS011;3465;42.144;24.722;2023-02-28T03:15:47;24.83;;;9.37;;
6852;SDS011;3465;42.144;24.722;2023-02-28T03:18:30;23.20;;;9.20;;
6852;SDS011;3465;42.144;24.722;2023-02-28T03:23:48;23.60;;;9.47;;
6852;SDS011;3465;42.144;24.722;2023-02-28T03:26:19;19.77;;;9.87;;
6852;SDS011;3465;42.144;24.722;2023-02-28T03:31:16;20.67;;;9.60;;
6852;SDS011;3465;42.144;24.722;2023-02-28T03:33:47;26.20;;;11.00;;
6852;SDS011;3465;42.144;24.722;2023-02-28T03:36:25;20.67;;;10.33;;
6852;SDS011;3465;42.144;24.722;2023-02-28T03:39:07;24.63;;;9.97;;
6852;SDS011;3465;42.144;24.722;2023-02-28T03:41:42;24.67;;;10.50;;
6852;SDS011;3465;42.144;24.722;2023-02-28T03:44:22;19.93;;;10.17;;
6852;SDS011;3465;42.144;24.722;2023-02-28T03:46:56;21.97;;;10.93;;
6852;SDS011;3465;42.144;24.722;2023-02-28T03:49:35;26.67;;;11.87;;
6852;SDS011;3465;42.144;24.722;2023-02-28T03:52:06;26.00;;;11.70;;
6852;SDS011;3465;42.144;24.722;2023-02-28T03:54:34;25.70;;;11.80;;
6852;SDS011;3465;42.144;24.722;2023-02-28T03:59:37;25.83;;;11.47;;
6852;SDS011;3465;42.144;24.722;2023-02-28T04:02:07;22.50;;;11.50;;
6852;SDS011;3465;42.144;24.722;2023-02-28T04:04:33;21.03;;;10.90;;
6852;SDS011;3465;42.144;24.722;2023-02-28T04:07:08;19.27;;;10.20;;
6852;SDS011;3465;42.144;24.722;2023-02-28T04:09:36;27.10;;;12.40;;
6852;SDS011;3465;42.144;24.722;2023-02-28T04:12:01;19.07;;;11.43;;
6852;SDS011;3465;42.144;24.722;2023-02-28T04:14:27;26.03;;;11.40;;
6852;SDS011;3465;42.144;24.722;2023-02-28T04:16:52;22.93;;;11.23;;
6852;SDS011;3465;42.144;24.722;2023-02-28T04:19:18;21.07;;;10.13;;
6852;SDS011;3465;42.144;24.722;2023-02-28T04:21:47;20.70;;;10.87;;
6852;SDS011;3465;42.144;24.722;2023-02-28T04:24:19;20.73;;;10.03;;
6852;SDS011;3465;42.144;24.722;2023-02-28T04:26:47;22.40;;;10.07;;
6852;SDS011;3465;42.144;24.722;2023-02-28T04:29:18;25.67;;;10.77;;
6852;SDS011;3465;42.144;24.722;2023-02-28T04:31:45;17.77;;;9.77;;
6852;SDS011;3465;42.144;24.722;2023-02-28T04:34:11;20.63;;;9.63;;
6852;SDS011;3465;42.144;24.722;2023-02-28T04:36:36;20.23;;;9.67;;
6852;SDS011;3465;42.144;24.722;2023-02-28T04:39:02;23.60;;;10.40;;
6852;SDS011;3465;42.144;24.722;2023-02-28T04:41:29;18.00;;;10.00;;
6852;SDS011;3465;42.144;24.722;2023-02-28T04:43:54;21.63;;;9.67;;
6852;SDS011;3465;42.144;24.722;2023-02-28T04:46:21;21.93;;;9.80;;
6852;SDS011;3465;42.144;24.722;2023-02-28T04:48:46;20.07;;;9.47;;
6852;SDS011;3465;42.144;24.722;2023-02-28T04:51:13;24.60;;;10.40;;
6852;SDS011;3465;42.144;24.722;2023-02-28T04:53:40;18.87;;;9.37;;
6852;SDS011;3465;42.144;24.722;2023-02-28T04:56:08;22.47;;;9.97;;
6852;SDS011;3465;42.144;24.722;2023-02-28T04:58:36;21.17;;;9.80;;
6852;SDS011;3465;42.144;24.722;2023-02-28T05:01:02;19.33;;;9.47;;
6852;SDS011;3465;42.144;24.722;2023-02-28T05:03:29;23.60;;;9.63;;
6852;SDS011;3465;42.144;24.722;2023-02-28T05:05:55;19.67;;;9.33;;
6852;SDS011;3465;42.144;24.722;2023-02-28T05:08:20;17.43;;;9.67;;
6852;SDS011;3465;42.144;24.722;2023-02-28T05:10:45;18.50;;;9.03;;
6852;SDS011;3465;42.144;24.722;2023-02-28T05:13:11;17.13;;;9.20;;
6852;SDS011;3465;42.144;24.722;2023-02-28T05:15:37;21.03;;;9.40;;
6852;SDS011;3465;42.144;24.722;2023-02-28T05:18:02;18.13;;;9.37;;
6852;SDS011;3465;42.144;24.722;2023-02-28T05:20:28;19.43;;;9.07;;
6852;SDS011;3465;42.144;24.722;2023-02-28T05:22:53;18.47;;;9.67;;
6852;SDS011;3465;42.144;24.722;2023-02-28T05:25:19;16.80;;;9.20;;
6852;SDS011;3465;42.144;24.722;2023-02-28T05:27:47;19.90;;;9.23;;
6852;SDS011;3465;42.144;24.722;2023-02-28T05:30:13;20.50;;;10.10;;
6852;SDS011;3465;42.144;24.722;2023-02-28T05:32:40;18.87;;;9.43;;
6852;SDS011;3465;42.144;24.722;2023-02-28T05:35:08;18.13;;;9.43;;
6852;SDS011;3465;42.144;24.722;2023-02-28T05:37:35;20.63;;;9.27;;
6852;SDS011;3465;42.144;24.722;2023-02-28T05:40:00;20.73;;;9.27;;
6852;SDS011;3465;42.144;24.722;2023-02-28T05:42:35;20.30;;;9.03;;
6852;SDS011;3465;42.144;24.722;2023-02-28T05:45:00;18.80;;;10.03;;
6852;SDS011;3465;42.144;24.722;2023-02-28T05:47:26;18.13;;;9.27;;
6852;SDS011;3465;42.144;24.722;2023-02-28T05:49:51;25.40;;;9.60;;
6852;SDS011;3465;42.144;24.722;2023-02-28T05:52:17;19.10;;;9.67;;
6852;SDS011;3465;42.144;24.722;2023-02-28T05:54:42;19.80;;;10.03;;
6852;SDS011;3465;42.144;24.722;2023-02-28T05:57:08;20.07;;;9.67;;
6852;SDS011;3465;42.144;24.722;2023-02-28T05:59:33;20.80;;;10.13;;
6852;SDS011;3465;42.144;24.722;2023-02-28T06:01:58;16.70;;;9.37;;
6852;SDS011;3465;42.144;24.722;2023-02-28T06:04:24;21.03;;;10.33;;
6852;SDS011;3465;42.144;24.722;2023-02-28T06:06:50;25.43;;;11.23;;
6852;SDS011;3465;42.144;24.722;2023-02-28T06:09:16;26.90;;;11.33;;
6852;SDS011;3465;42.144;24.722;2023-02-28T06:11:43;23.33;;;10.93;;
6852;SDS011;3465;42.144;24.722;2023-02-28T06:14:12;21.27;;;10.03;;
6852;SDS011;3465;42.144;24.722;2023-02-28T06:16:41;23.00;;;10.87;;
6852;SDS011;3465;42.144;24.722;2023-02-28T06:19:06;23.67;;;11.03;;
6852;SDS011;3465;42.144;24.722;2023-02-28T06:21:32;22.03;;;11.30;;
6852;SDS011;3465;42.144;24.722;2023-02-28T06:23:57;17.20;;;10.17;;
6852;SDS011;3465;42.144;24.722;2023-02-28T06:26:24;19.87;;;10.83;;
6852;SDS011;3465;42.144;24.722;2023-02-28T06:28:50;28.97;;;11.30;;
6852;SDS011;3465;42.144;24.722;2023-02-28T06:31:16;22.13;;;11.23;;
6852;SDS011;3465;42.144;24.722;2023-02-28T06:33:42;24.90;;;11.67;;
6852;SDS011;3465;42.144;24.722;2023-02-28T06:36:09;23.13;;;11.70;;
6852;SDS011;3465;42.144;24.722;2023-02-28T06:38:36;20.30;;;11.53;;
6852;SDS011;3465;42.144;24.722;2023-02-28T06:41:02;23.70;;;11.63;;
6852;SDS011;3465;42.144;24.722;2023-02-28T06:43:30;28.57;;;12.10;;
6852;SDS011;3465;42.144;24.722;2023-02-28T06:45:57;24.57;;;11.80;;
6852;SDS011;3465;42.144;24.722;2023-02-28T06:48:25;26.37;;;12.07;;
6852;SDS011;3465;42.144;24.722;2023-02-28T06:50:52;23.33;;;11.37;;
6852;SDS011;3465;42.144;24.722;2023-02-28T06:53:17;23.17;;;11.73;;
6852;SDS011;3465;42.144;24.722;2023-02-28T06:55:43;25.97;;;11.27;;
6852;SDS011;3465;42.144;24.722;2023-02-28T06:58:08;28.80;;;12.13;;
6852;SDS011;3465;42.144;24.722;2023-02-28T07:00:43;29.43;;;11.23;;
6852;SDS011;3465;42.144;24.722;2023-02-28T07:03:10;23.07;;;11.90;;
6852;SDS011;3465;42.144;24.722;2023-02-28T07:05:37;23.63;;;11.80;;
6852;SDS011;3465;42.144;24.722;2023-02-28T07:08:04;22.93;;;10.67;;
6852;SDS011;3465;42.144;24.722;2023-02-28T07:10:31;22.90;;;11.60;;
6852;SDS011;3465;42.144;24.722;2023-02-28T07:12:57;23.40;;;12.10;;
6852;SDS011;3465;42.144;24.722;2023-02-28T07:15:23;23.10;;;12.40;;
6852;SDS011;3465;42.144;24.722;2023-02-28T07:17:48;24.17;;;12.83;;
6852;SDS011;3465;42.144;24.722;2023-02-28T07:20:13;23.90;;;12.63;;
6852;SDS011;3465;42.144;24.722;2023-02-28T07:22:39;25.93;;;12.50;;
6852;SDS011;3465;42.144;24.722;2023-02-28T07:25:05;26.10;;;11.97;;
6852;SDS011;3465;42.144;24.722;2023-02-28T07:27:31;25.57;;;11.60;;
6852;SDS011;3465;42.144;24.722;2023-02-28T07:29:56;29.70;;;12.03;;
6852;SDS011;3465;42.144;24.722;2023-02-28T07:32:22;24.60;;;11.87;;
6852;SDS011;3465;42.144;24.722;2023-02-28T07:34:47;22.30;;;11.90;;
6852;SDS011;3465;42.144;24.722;2023-02-28T07:37:13;23.83;;;11.73;;
6852;SDS011;3465;42.144;24.722;2023-02-28T07:39:39;24.97;;;12.10;;
6852;SDS011;3465;42.144;24.722;2023-02-28T07:42:07;27.73;;;12.20;;
6852;SDS011;3465;42.144;24.722;2023-02-28T07:44:36;27.90;;;11.90;;
6852;SDS011;3465;42.144;24.722;2023-02-28T07:47:05;29.93;;;13.20;;
6852;SDS011;3465;42.144;24.722;2023-02-28T07:49:34;37.33;;;14.37;;
6852;SDS011;3465;42.144;24.722;2023-02-28T07:52:03;32.00;;;13.80;;
6852;SDS011;3465;42.144;24.722;2023-02-28T07:54:32;29.67;;;14.57;;
6852;SDS011;3465;42.144;24.722;2023-02-28T07:56:58;33.03;;;15.40;;
6852;SDS011;3465;42.144;24.722;2023-02-28T07:59:23;28.47;;;13.90;;
6852;SDS011;3465;42.144;24.722;2023-02-28T08:01:49;32.30;;;13.60;;
6852;SDS011;3465;42.144;24.722;2023-02-28T08:04:16;28.33;;;13.73;;
6852;SDS011;3465;42.144;24.722;2023-02-28T08:06:42;27.97;;;13.80;;
6852;SDS011;3465;42.144;24.722;2023-02-28T08:09:08;31.93;;;14.63;;
6852;SDS011;3465;42.144;24.722;2023-02-28T08:11:33;30.40;;;14.57;;
6852;SDS011;3465;42.144;24.722;2023-02-28T08:13:59;28.53;;;13.73;;
6852;SDS011;3465;42.144;24.722;2023-02-28T08:16:24;24.40;;;12.90;;
6852;SDS011;3465;42.144;24.722;2023-02-28T08:18:52;33.33;;;15.07;;
6852;SDS011;3465;42.144;24.722;2023-02-28T08:21:18;30.73;;;14.80;;
6852;SDS011;3465;42.144;24.722;2023-02-28T08:23:49;36.13;;;15.20;;
6852;SDS011;3465;42.144;24.722;2023-02-28T08:26:16;35.10;;;14.33;;
6852;SDS011;3465;42.144;24.722;2023-02-28T08:28:42;31.03;;;14.77;;
6852;SDS011;3465;42.144;24.722;2023-02-28T08:31:09;36.27;;;14.70;;
6852;SDS011;3465;42.144;24.722;2023-02-28T08:33:36;40.90;;;15.47;;
6852;SDS011;3465;42.144;24.722;2023-02-28T08:36:02;32.30;;;15.03;;
6852;SDS011;3465;42.144;24.722;2023-02-28T08:38:27;30.27;;;15.10;;
6852;SDS011;3465;42.144;24.722;2023-02-28T08:40:59;38.80;;;14.07;;
6852;SDS011;3465;42.144;24.722;2023-02-28T08:43:27;31.20;;;13.63;;
6852;SDS011;3465;42.144;24.722;2023-02-28T08:45:55;28.60;;;15.30;;
6852;SDS011;3465;42.144;24.722;2023-02-28T08:48:22;34.33;;;17.43;;
6852;SDS011;3465;42.144;24.722;2023-02-28T08:51:22;37.27;;;16.10;;
6852;SDS011;3465;42.144;24.722;2023-02-28T08:53:43;38.07;;;15.73;;
6852;SDS011;3465;42.144;24.722;2023-02-28T08:56:11;27.73;;;13.77;;
6852;SDS011;3465;42.144;24.722;2023-02-28T08:58:38;39.40;;;16.27;;
6852;SDS011;3465;42.144;24.722;2023-02-28T09:01:11;35.60;;;16.10;;
6852;SDS011;3465;42.144;24.722;2023-02-28T09:03:45;28.87;;;15.90;;
6852;SDS011;3465;42.144;24.722;2023-02-28T09:06:12;43.43;;;16.43;;
6852;SDS011;3465;42.144;24.722;2023-02-28T09:08:39;43.33;;;16.80;;
6852;SDS011;3465;42.144;24.722;2023-02-28T09:11:04;30.90;;;15.60;;
6852;SDS011;3465;42.144;24.722;2023-02-28T09:13:30;36.67;;;16.60;;
6852;SDS011;3465;42.144;24.722;2023-02-28T09:15:57;32.10;;;15.97;;
6852;SDS011;3465;42.144;24.722;2023-02-28T09:18:24;28.97;;;14.63;;
6852;SDS011;3465;42.144;24.722;2023-02-28T09:20:50;30.10;;;15.87;;
6852;SDS011;3465;42.144;24.722;2023-02-28T09:23:16;33.67;;;15.37;;
6852;SDS011;3465;42.144;24.722;2023-02-28T09:25:46;27.90;;;14.23;;
6852;SDS011;3465;42.144;24.722;2023-02-28T09:28:19;31.47;;;15.90;;
6852;SDS011;3465;42.144;24.722;2023-02-28T09:30:46;34.50;;;16.60;;
6852;SDS011;3465;42.144;24.722;2023-02-28T09:33:14;29.30;;;16.13;;
6852;SDS011;3465;42.144;24.722;2023-02-28T09:35:41;27.67;;;15.90;;
6852;SDS011;3465;42.144;24.722;2023-02-28T09:38:08;29.80;;;15.73;;
6852;SDS011;3465;42.144;24.722;2023-02-28T09:40:35;31.57;;;15.03;;
6852;SDS011;3465;42.144;24.722;2023-02-28T09:43:04;25.67;;;14.30;;
6852;SDS011;3465;42.144;24.722;2023-02-28T09:45:37;26.67;;;14.97;;
6852;SDS011;3465;42.144;24.722;2023-02-28T09:48:10;29.00;;;15.90;;
6852;SDS011;3465;42.144;24.722;2023-02-28T09:50:50;28.23;;;15.70;;
6852;SDS011;3465;42.144;24.722;2023-02-28T09:55:59;30.17;;;16.33;;
6852;SDS011;3465;42.144;24.722;2023-02-28T10:06:39;26.07;;;15.97;;
6852;SDS011;3465;42.144;24.722;2023-02-28T10:09:13;33.83;;;16.60;;
6852;SDS011;3465;42.144;24.722;2023-02-28T10:11:47;37.10;;;17.47;;
6852;SDS011;3465;42.144;24.722;2023-02-28T10:14:16;37.17;;;16.47;;
6852;SDS011;3465;42.144;24.722;2023-02-28T10:16:58;33.73;;;16.23;;
6852;SDS011;3465;42.144;24.722;2023-02-28T10:22:28;33.20;;;17.33;;
6852;SDS011;3465;42.144;24.722;2023-02-28T10:25:00;33.10;;;17.00;;
6852;SDS011;3465;42.144;24.722;2023-02-28T10:27:31;34.13;;;17.10;;
6852;SDS011;3465;42.144;24.722;2023-02-28T10:29:58;35.67;;;17.43;;
6852;SDS011;3465;42.144;24.722;2023-02-28T10:32:26;34.50;;;17.20;;
6852;SDS011;3465;42.144;24.722;2023-02-28T10:37:39;37.37;;;17.60;;
6852;SDS011;3465;42.144;24.722;2023-02-28T10:40:06;46.53;;;18.27;;
6852;SDS011;3465;42.144;24.722;2023-02-28T10:43:20;39.37;;;17.57;;
6852;SDS011;3465;42.144;24.722;2023-02-28T10:46:32;37.23;;;17.90;;
6852;SDS011;3465;42.144;24.722;2023-02-28T10:51:14;34.23;;;18.77;;
6852;SDS011;3465;42.144;24.722;2023-02-28T11:01:46;37.77;;;17.70;;
6852;SDS011;3465;42.144;24.722;2023-02-28T11:06:47;36.93;;;18.30;;
6852;SDS011;3465;42.144;24.722;2023-02-28T11:09:27;44.47;;;19.27;;
6852;SDS011;3465;42.144;24.722;2023-02-28T11:12:00;37.37;;;19.03;;
6852;SDS011;3465;42.144;24.722;2023-02-28T11:14:33;44.33;;;18.60;;
6852;SDS011;3465;42.144;24.722;2023-02-28T11:17:22;32.17;;;17.73;;
6852;SDS011;3465;42.144;24.722;2023-02-28T11:19:56;42.80;;;17.43;;
6852;SDS011;3465;42.144;24.722;2023-02-28T11:22:28;39.57;;;18.03;;
6852;SDS011;3465;42.144;24.722;2023-02-28T11:25:01;37.37;;;17.10;;
6852;SDS011;3465;42.144;24.722;2023-02-28T11:29:58;38.97;;;18.17;;
6852;SDS011;3465;42.144;24.722;2023-02-28T11:32:25;43.33;;;17.93;;
6852;SDS011;3465;42.144;24.722;2023-02-28T11:37:34;37.07;;;17.77;;
6852;SDS011;3465;42.144;24.722;2023-02-28T11:40:01;34.17;;;18.23;;
6852;SDS011;3465;42.144;24.722;2023-02-28T11:42:38;39.37;;;19.43;;
6852;SDS011;3465;42.144;24.722;2023-02-28T11:45:44;36.83;;;17.13;;
6852;SDS011;3465;42.144;24.722;2023-02-28T11:51:21;40.97;;;18.37;;
6852;SDS011;3465;42.144;24.722;2023-02-28T11:54:07;37.20;;;18.07;;
6852;SDS011;3465;42.144;24.722;2023-02-28T11:56:44;33.10;;;17.97;;
6852;SDS011;3465;42.144;24.722;2023-02-28T12:01:58;41.13;;;20.73;;
6852;SDS011;3465;42.144;24.722;2023-02-28T12:12:49;41.77;;;21.77;;
6852;SDS011;3465;42.144;24.722;2023-02-28T12:27:02;54.87;;;24.40;;
6852;SDS011;3465;42.144;24.722;2023-02-28T12:29:36;51.97;;;23.73;;
6852;SDS011;3465;42.144;24.722;2023-02-28T12:34:49;51.40;;;24.63;;
6852;SDS011;3465;42.144;24.722;2023-02-28T12:37:21;50.17;;;25.00;;
6852;SDS011;3465;42.144;24.722;2023-02-28T12:39:51;46.83;;;23.73;;
6852;SDS011;3465;42.144;24.722;2023-02-28T12:42:31;50.57;;;24.83;;
6852;SDS011;3465;42.144;24.722;2023-02-28T12:45:03;47.70;;;24.70;;
6852;SDS011;3465;42.144;24.722;2023-02-28T12:47:35;46.73;;;25.20;;
6852;SDS011;3465;42.144;24.722;2023-02-28T12:50:06;47.03;;;24.57;;
6852;SDS011;3465;42.144;24.722;2023-02-28T12:55:35;56.37;;;25.20;;
6852;SDS011;3465;42.144;24.722;2023-02-28T12:58:30;54.07;;;26.30;;
6852;SDS011;3465;42.144;24.722;2023-02-28T13:04:41;55.63;;;26.17;;
6852;SDS011;3465;42.144;24.722;2023-02-28T13:09:37;54.13;;;26.20;;
6852;SDS011;3465;42.144;24.722;2023-02-28T13:12:14;52.07;;;24.70;;
6852;SDS011;3465;42.144;24.722;2023-02-28T13:14:41;58.90;;;27.40;;
6852;SDS011;3465;42.144;24.722;2023-02-28T13:19:36;50.57;;;25.10;;
6852;SDS011;3465;42.144;24.722;2023-02-28T13:22:05;45.10;;;23.20;;
6852;SDS011;3465;42.144;24.722;2023-02-28T13:24:45;49.60;;;23.77;;
6852;SDS011;3465;42.144;24.722;2023-02-28T13:27:21;52.30;;;23.00;;
6852;SDS011;3465;42.144;24.722;2023-02-28T13:29:50;57.27;;;24.50;;
6852;SDS011;3465;42.144;24.722;2023-02-28T13:32:33;49.67;;;24.47;;
6852;SDS011;3465;42.144;24.722;2023-02-28T13:37:34;48.60;;;23.37;;
6852;SDS011;3465;42.144;24.722;2023-02-28T13:43:01;54.10;;;26.10;;
6852;SDS011;3465;42.144;24.722;2023-02-28T13:45:28;48.33;;;24.47;;
6852;SDS011;3465;42.144;24.722;2023-02-28T13:50:49;50.70;;;24.47;;
6852;SDS011;3465;42.144;24.722;2023-02-28T14:01:29;49.37;;;25.63;;
6852;SDS011;3465;42.144;24.722;2023-02-28T14:07:16;54.50;;;27.77;;
6852;SDS011;3465;42.144;24.722;2023-02-28T14:09:46;46.87;;;25.27;;
6852;SDS011;3465;42.144;24.722;2023-02-28T14:18:05;56.83;;;25.13;;
6852;SDS011;3465;42.144;24.722;2023-02-28T14:20:47;45.87;;;23.53;;
6852;SDS011;3465;42.144;24.722;2023-02-28T14:32:01;38.17;;;22.00;;
6852;SDS011;3465;42.144;24.722;2023-02-28T14:34:39;36.70;;;21.10;;
6852;SDS011;3465;42.144;24.722;2023-02-28T14:37:16;37.93;;;20.87;;
6852;SDS011;3465;42.144;24.722;2023-02-28T14:39:49;39.37;;;20.50;;
6852;SDS011;3465;42.144;24.722;2023-02-28T14:42:34;49.60;;;20.50;;
6852;SDS011;3465;42.144;24.722;2023-02-28T14:45:03;36.97;;;21.20;;
6852;SDS011;3465;42.144;24.722;2023-02-28T14:47:32;38.63;;;21.57;;
6852;SDS011;3465;42.144;24.722;2023-02-28T14:50:00;44.53;;;22.50;;
6852;SDS011;3465;42.144;24.722;2023-02-28T14:52:29;40.57;;;19.50;;
6852;SDS011;3465;42.144;24.722;2023-02-28T14:55:00;41.23;;;18.53;;
6852;SDS011;3465;42.144;24.722;2023-02-28T14:57:39;38.33;;;19.93;;
6852;SDS011;3465;42.144;24.722;2023-02-28T15:02:49;35.53;;;19.97;;
6852;SDS011;3465;42.144;24.722;2023-02-28T15:07:44;31.87;;;17.40;;
6852;SDS011;3465;42.144;24.722;2023-02-28T15:10:20;31.27;;;17.03;;
6852;SDS011;3465;42.144;24.722;2023-02-28T15:15:18;29.37;;;16.83;;
6852;SDS011;3465;42.144;24.722;2023-02-28T15:17:46;29.23;;;16.57;;
6852;SDS011;3465;42.144;24.722;2023-02-28T15:20:18;32.93;;;16.80;;
6852;SDS011;3465;42.144;24.722;2023-02-28T15:22:44;31.70;;;16.80;;
6852;SDS011;3465;42.144;24.722;2023-02-28T15:25:13;33.80;;;17.70;;
6852;SDS011;3465;42.144;24.722;2023-02-28T15:27:44;31.63;;;16.57;;
6852;SDS011;3465;42.144;24.722;2023-02-28T15:30:19;30.33;;;17.13;;
6852;SDS011;3465;42.144;24.722;2023-02-28T15:35:48;41.07;;;20.93;;
6852;SDS011;3465;42.144;24.722;2023-02-28T15:38:24;33.53;;;17.97;;
6852;SDS011;3465;42.144;24.722;2023-02-28T15:43:30;32.60;;;17.23;;
6852;SDS011;3465;42.144;24.722;2023-02-28T15:48:31;32.77;;;17.03;;
6852;SDS011;3465;42.144;24.722;2023-02-28T15:51:20;31.80;;;16.33;;
6852;SDS011;3465;42.144;24.722;2023-02-28T15:54:04;32.53;;;15.67;;
6852;SDS011;3465;42.144;24.722;2023-02-28T15:56:46;33.07;;;16.93;;
6852;SDS011;3465;42.144;24.722;2023-02-28T15:59:20;33.50;;;16.87;;
6852;SDS011;3465;42.144;24.722;2023-02-28T16:01:52;32.67;;;16.97;;
6852;SDS011;3465;42.144;24.722;2023-02-28T16:04:36;34.93;;;17.37;;
6852;SDS011;3465;42.144;24.722;2023-02-28T16:07:03;33.73;;;16.87;;
6852;SDS011;3465;42.144;24.722;2023-02-28T16:09:37;36.20;;;16.93;;
6852;SDS011;3465;42.144;24.722;2023-02-28T16:12:03;32.63;;;16.47;;
6852;SDS011;3465;42.144;24.722;2023-02-28T16:14:29;32.57;;;15.63;;
6852;SDS011;3465;42.144;24.722;2023-02-28T16:16:56;39.37;;;17.73;;
6852;SDS011;3465;42.144;24.722;2023-02-28T16:19:26;37.23;;;17.67;;
6852;SDS011;3465;42.144;24.722;2023-02-28T16:21:52;37.03;;;17.70;;
6852;SDS011;3465;42.144;24.722;2023-02-28T16:24:17;37.67;;;16.97;;
6852;SDS011;3465;42.144;24.722;2023-02-28T16:26:45;36.17;;;17.00;;
6852;SDS011;3465;42.144;24.722;2023-02-28T16:29:19;38.00;;;16.53;;
6852;SDS011;3465;42.144;24.722;2023-02-28T16:31:50;33.97;;;16.30;;
6852;SDS011;3465;42.144;24.722;2023-02-28T16:34:15;30.03;;;15.20;;
6852;SDS011;3465;42.144;24.722;2023-02-28T16:36:41;34.87;;;15.97;;
6852;SDS011;3465;42.144;24.722;2023-02-28T16:39:06;27.83;;;15.40;;
6852;SDS011;3465;42.144;24.722;2023-02-28T16:41:31;33.83;;;15.33;;
6852;SDS011;3465;42.144;24.722;2023-02-28T16:43:59;29.40;;;14.33;;
6852;SDS011;3465;42.144;24.722;2023-02-28T16:46:30;31.87;;;15.50;;
6852;SDS011;3465;42.144;24.722;2023-02-28T16:48:59;31.23;;;14.03;;
6852;SDS011;3465;42.144;24.722;2023-02-28T16:51:24;27.93;;;14.57;;
6852;SDS011;3465;42.144;24.722;2023-02-28T16:53:50;28.27;;;15.27;;
6852;SDS011;3465;42.144;24.722;2023-02-28T16:58:43;30.60;;;15.10;;
6852;SDS011;3465;42.144;24.722;2023-02-28T17:01:09;33.30;;;15.70;;
6852;SDS011;3465;42.144;24.722;2023-02-28T17:03:34;32.47;;;15.60;;
6852;SDS011;3465;42.144;24.722;2023-02-28T17:06:02;34.43;;;16.53;;
6852;SDS011;3465;42.144;24.722;2023-02-28T17:08:28;34.03;;;16.80;;
6852;SDS011;3465;42.144;24.722;2023-02-28T17:10:56;30.73;;;15.90;;
6852;SDS011;3465;42.144;24.722;2023-02-28T17:13:22;29.83;;;14.57;;
6852;SDS011;3465;42.144;24.722;2023-02-28T17:15:48;32.80;;;15.77;;
6852;SDS011;3465;42.144;24.722;2023-02-28T17:18:14;30.53;;;15.43;;
6852;SDS011;3465;42.144;24.722;2023-02-28T17:20:41;28.07;;;13.83;;
6852;SDS011;3465;42.144;24.722;2023-02-28T17:23:07;28.07;;;15.07;;
6852;SDS011;3465;42.144;24.722;2023-02-28T17:25:33;28.77;;;13.93;;
6852;SDS011;3465;42.144;24.722;2023-02-28T17:27:58;25.30;;;13.33;;
6852;SDS011;3465;42.144;24.722;2023-02-28T17:30:24;24.83;;;13.50;;
6852;SDS011;3465;42.144;24.722;2023-02-28T17:32:52;24.27;;;13.07;;
6852;SDS011;3465;42.144;24.722;2023-02-28T17:35:18;23.27;;;12.20;;